Flight Track Log - Related Links

Times and Time Zones

All times are in EST time to prevent confusion due to time zone crossing. See the SBE607 flight status page for this flight to view local times or setup timezone preferences in your user account.

Time Position Orientation Groundspeed Altitude Reporting Facility
EST Latitude Longitude Course Direction KTS MPH feet Rate Location/Type
Sun 03:03:18 PM 26.1233 -81.9514 North 260 299 9,100  Level Miami Center
Sun 03:04:18 PM 26.1114 -82.0481 262° West 302 348 12,100 3,450 Climbing Miami Center
Sun 03:05:18 PM 26.1017 -82.1494 264° West 325 374 16,000 3,650 Climbing Miami Center
Sun 03:06:18 PM 26.1211 -82.2475 282° West 330 380 19,400 3,400 Climbing Miami Center
Sun 03:07:00 PM 26.1648 -82.3833 North  Level FlightAware Approximate
Sun 03:07:18 PM 26.1403 -82.3478 282° West 330 380 22,800  Level Miami Center
Sun 03:08:18 PM 26.1608 -82.4644 281° West 356 410 23,000 100 Climbing Miami Center
Sun 03:09:18 PM 26.1953 -82.5978 286° West 403 464 23,000 450 Level Miami Center
Sun 03:10:18 PM 26.2369 -82.7064 293° West 429 494 23,900 1,850 Climbing Miami Center
Sun 03:11:18 PM 26.3453 -82.7603 336° Northwest 401 461 26,700 2,500 Climbing Miami Center
Sun 03:12:18 PM 26.4653 -82.7894 348° North 400 460 28,900 2,350 Climbing Miami Center
Sun 03:13:18 PM 26.5831 -82.8139 349° North 416 479 31,400 2,400 Climbing Miami Center
Sun 03:14:18 PM 26.6989 -82.8431 347° North 421 484 33,700 2,100 Climbing Miami Center
Sun 03:15:18 PM 26.8147 -82.8675 349° North 426 490 35,600 1,250 Climbing Miami Center
Sun 03:16:18 PM 26.9344 -82.8947 349° North 431 496 36,200 1,000 Climbing Miami Center
Sun 03:17:18 PM 27.0544 -82.9242 348° North 431 496 37,600 1,400 Climbing Miami Center
Sun 03:18:18 PM 27.1722 -82.9514 348° North 431 496 39,000 1,200 Climbing Miami Center
Sun 03:19:18 PM 27.2900 -82.9786 348° North 431 496 40,000 500 Climbing Miami Center
Sun 03:20:18 PM 27.4075 -83.0083 347° North 426 490 40,000  Level Miami Center
Sun 03:21:18 PM 27.5256 -83.0333 349° North 426 490 40,000  Level Miami Center
Sun 03:23:01 PM 27.7367 -83.0847 348° North 425 489 40,000  Level Jacksonville Center
Sun 03:24:01 PM 27.8533 -83.1108 349° North 432 497 40,000  Level Jacksonville Center
Sun 03:25:01 PM 27.9703 -83.1417 347° North 432 497 40,000  Level Jacksonville Center
Sun 03:26:01 PM 28.0828 -83.1772 344° North 427 491 40,000  Level Jacksonville Center
Sun 03:27:01 PM 28.1892 -83.2222 340° North 417 480 40,000  Level Jacksonville Center
Sun 03:28:01 PM 28.2997 -83.2650 341° North 417 480 40,000  Level Jacksonville Center
Sun 03:29:01 PM 28.4100 -83.3128 339° North 417 480 40,000  Level Jacksonville Center
Sun 03:30:01 PM 28.5058 -83.3486 342° North 412 474 40,000  Level Jacksonville Center
Sun 03:31:01 PM 28.6164 -83.3964 339° North 412 474 40,000  Level Jacksonville Center
Sun 03:32:01 PM 28.7269 -83.4419 340° North 412 474 40,000  Level Jacksonville Center
Sun 03:33:01 PM 28.8350 -83.4922 338° Northwest 412 474 40,000 -300 Level Jacksonville Center
Sun 03:34:01 PM 28.8994 -83.5897 307° West 381 438 39,400 -1,500 Descending Jacksonville Center
Sun 03:35:01 PM 28.9425 -83.6969 295° West 373 429 37,000 -2,600 Descending Jacksonville Center
Sun 03:36:01 PM 28.9878 -83.8089 295° West 378 435 34,200 -3,000 Descending Jacksonville Center
Sun 03:37:01 PM 29.0389 -83.9281 296° West 395 455 31,000 -3,000 Descending Jacksonville Center
Sun 03:38:01 PM 29.0858 -84.0497 294° West 413 475 28,200 -2,500 Descending Jacksonville Center
Sun 03:39:01 PM 29.1350 -84.1717 295° West 419 482 26,000 -2,100 Descending Jacksonville Center
Sun 03:40:01 PM 29.1858 -84.2983 295° West 424 488 24,000 -1,000 Descending Jacksonville Center
Sun 03:41:01 PM 29.2364 -84.4250 295° West 424 488 24,000  Level Jacksonville Center
Sun 03:42:01 PM 29.2892 -84.5522 295° West 429 494 24,000  Level Jacksonville Center
Sun 03:43:01 PM 29.3375 -84.6817 293° West 436 502 24,000  Level Jacksonville Center
Sun 03:44:01 PM 29.3606 -84.8178 281° West 441 507 24,000  Level Jacksonville Center
Sun 03:45:01 PM 29.3794 -84.9539 279° West 441 507 24,000  Level Jacksonville Center
Sun 03:46:01 PM 29.3978 -85.0925 279° West 435 501 24,000  Level Jacksonville Center
Sun 03:47:01 PM 29.4186 -85.2267 280° West 435 501 24,000  Level Jacksonville Center
Sun 03:48:01 PM 29.4367 -85.3678 278° West 440 506 24,000  Level Jacksonville Center
Sun 03:49:01 PM 29.4547 -85.5064 279° West 445 512 24,000  Level Jacksonville Center
Sun 03:50:01 PM 29.4728 -85.6431 279° West 445 512 24,000  Level Jacksonville Center
Sun 03:51:01 PM 29.4908 -85.7794 279° West 445 512 24,000  Level Jacksonville Center
Sun 03:52:01 PM 29.5064 -85.9158 277° West 445 512 24,000  Level Jacksonville Center
Sun 03:53:01 PM 29.5261 -86.0500 280° West 440 506 24,000  Level Jacksonville Center
Sun 03:54:01 PM 29.5456 -86.1867 279° West 440 506 24,000  Level Jacksonville Center
Sun 03:55:01 PM 29.5586 -86.3208 276° West 440 506 24,000  Level Jacksonville Center
Sun 03:56:01 PM 29.5778 -86.4672 279° West 430 495 24,000  Level Jacksonville Center
Sun 03:57:01 PM 29.5947 -86.5992 278° West 425 489 24,000  Level Jacksonville Center
Sun 03:58:01 PM 29.6117 -86.7383 278° West 430 495 24,000  Level Jacksonville Center
Sun 03:59:01 PM 29.6303 -86.8728 279° West 430 495 24,000  Level Jacksonville Center
Sun 04:00:01 PM 29.6469 -87.0072 278° West 430 495 24,000  Level Jacksonville Center
Sun 04:01:01 PM 29.6614 -87.1417 277° West 430 495 24,000  Level Jacksonville Center
Sun 04:02:01 PM 29.6797 -87.2789 279° West 430 495 24,000  Level Jacksonville Center
Sun 04:03:01 PM 29.6917 -87.4108 276° West 425 489 24,000  Level Jacksonville Center
Sun 04:04:22 PM 29.7147 -87.5939 278° West 427 491 24,000  Level Houston Center
Sun 04:05:24 PM 29.7292 -87.7272 277° West 426 490 24,000  Level Houston Center
Sun 04:06:26 PM 29.7450 -87.8636 278° West 424 488 24,000  Level Houston Center
Sun 04:07:29 PM 29.7597 -87.9983 277° West 424 488 24,000  Level Houston Center
Sun 04:08:31 PM 29.7756 -88.1319 278° West 423 487 24,000 -823 Level Houston Center
Sun 04:09:33 PM 29.7889 -88.2644 277° West 415 478 22,300 -2,565 Descending Houston Center
Sun 04:10:35 PM 29.8058 -88.4147 277° West 422 486 18,700 -3,000 Descending Houston Center
Sun 04:11:37 PM 29.8194 -88.5439 277° West 413 475 16,100 -2,613 Descending Houston Center
Sun 04:12:39 PM 29.8339 -88.6694 278° West 400 460 13,300 -2,468 Descending Houston Center
Sun 04:13:41 PM 29.8494 -88.8175 277° West 393 452 11,000 -1,113 Descending Houston Center
Sun 04:14:43 PM 29.8619 -88.9397 277° West 386 444 11,000  Level Houston Center
Sun 04:15:46 PM 29.8739 -89.0608 277° West 386 444 11,000  Level Houston Center
Sun 04:16:48 PM 29.8869 -89.1847 277° West 385 443 11,000  Level Houston Center
Sun 04:17:29 PM 29.8969 -89.2833 277° West 390 449 11,000  Level Houston Center
Sun 04:17:50 PM 29.9000 -89.3086 278° West 387 445 11,000  Level Houston Center
Sun 04:18:06 PM 29.9042 -89.3597 275° West 386 444 11,000  Level Houston Center
Sun 04:18:52 PM 29.9133 -89.4303 279° West 386 444 11,000  Level Houston Center
Sun 04:19:06 PM 29.9314 -89.4783 293° West 387 445 11,000  Level Houston Center
Sun 04:19:54 PM 29.9578 -89.5544 292° West 386 444 11,000 -358 Level Houston Center
Sun 04:20:13 PM 29.9733 -89.5986 292° West 384 442 10,600 -1,548 Descending Houston Center
Sun 04:20:56 PM 29.9997 -89.6667 294° West 356 410 9,400 -1,967 Descending Houston Center
Sun 04:21:14 PM 30.0100 -89.6931 294° West 277 319 8,600 -2,323 Descending Houston Center
Sun 04:21:58 PM 30.0317 -89.7439 296° West 284 327 7,000 -2,361 Descending Houston Center
Sun 04:22:15 PM 30.0419 -89.7708 294° West 255 293 6,200 -2,419 Descending Houston Center
Sun 04:23:00 PM 30.0544 -89.8242 285° West 271 312 4,500 -2,400 Descending Houston Center
Sun 04:23:10 PM 30.0569 -89.8447 278° West 259 298 4,000 -484 Descending Houston Center
Sun 04:24:02 PM 30.0639 -89.9167 276° West 265 305 4,000  Level Houston Center
Sun 04:24:11 PM 30.0661 -89.9308 280° West 268 308 4,000 -571 Level Houston Center
Sun 04:25:05 PM 30.0733 -89.9936 278° West 266 306 3,400 -900 Descending Houston Center
Sun 04:25:11 PM 30.0753 -90.0144 276° West 263 303 3,100 -387 Descending Houston Center
Sun 04:26:07 PM 30.0833 -90.0725 279° West 259 298 3,000 -590 Descending Houston Center
Sun 04:26:12 PM 30.0858 -90.0908 279° West 244 281 2,500 -1,258 Descending Houston Center
Sun 04:27:09 PM 30.0881 -90.1492 273° West 246 283 1,700 -806 Descending Houston Center
Sun 04:27:19 PM 30.0822 -90.1728 254° West 208 239 1,600 -581 Descending Houston Center
Sun 04:28:11 PM 30.0656 -90.2194 248° West 218 251 1,100 -590 Descending Houston Center
Sun 04:28:20 PM 30.0567 -90.2267 215° Southwest 183 211 1,000 -677 Descending Houston Center
Sun 04:29:13 PM 30.0222 -90.2406 199° South 189 217 400 -689 Descending Houston Center
Sun 04:29:21 PM 30.0156 -90.2428 196° South 142 163 300 -750 Descending Houston Center

Login

Don't have an account? Register now (free) for customized features, flight alerts, and more!